sensor_id;sensor_type;location;lat;lon;timestamp;P1;durP1;ratioP1;P2;durP2;ratioP2
3849;SDS011;1940;51.052;13.678;2023-05-07T00:01:05;35.03;;;16.13;;
3849;SDS011;1940;51.052;13.678;2023-05-07T00:03:31;31.53;;;15.77;;
3849;SDS011;1940;51.052;13.678;2023-05-07T00:05:57;31.03;;;15.80;;
3849;SDS011;1940;51.052;13.678;2023-05-07T00:08:23;27.03;;;15.13;;
3849;SDS011;1940;51.052;13.678;2023-05-07T00:10:49;30.40;;;14.03;;
3849;SDS011;1940;51.052;13.678;2023-05-07T00:13:14;23.90;;;12.40;;
3849;SDS011;1940;51.052;13.678;2023-05-07T00:15:40;25.80;;;13.30;;
3849;SDS011;1940;51.052;13.678;2023-05-07T00:18:05;27.10;;;11.47;;
3849;SDS011;1940;51.052;13.678;2023-05-07T00:20:31;21.50;;;11.97;;
3849;SDS011;1940;51.052;13.678;2023-05-07T00:22:57;21.50;;;11.83;;
3849;SDS011;1940;51.052;13.678;2023-05-07T00:25:22;25.07;;;13.20;;
3849;SDS011;1940;51.052;13.678;2023-05-07T00:27:48;23.97;;;12.00;;
3849;SDS011;1940;51.052;13.678;2023-05-07T00:30:13;29.30;;;13.37;;
3849;SDS011;1940;51.052;13.678;2023-05-07T00:32:39;27.70;;;13.60;;
3849;SDS011;1940;51.052;13.678;2023-05-07T00:35:05;27.20;;;14.80;;
3849;SDS011;1940;51.052;13.678;2023-05-07T00:37:31;27.23;;;13.37;;
3849;SDS011;1940;51.052;13.678;2023-05-07T00:39:56;27.17;;;14.93;;
3849;SDS011;1940;51.052;13.678;2023-05-07T00:42:22;31.20;;;17.10;;
3849;SDS011;1940;51.052;13.678;2023-05-07T00:44:48;32.93;;;16.97;;
3849;SDS011;1940;51.052;13.678;2023-05-07T00:47:15;33.90;;;17.17;;
3849;SDS011;1940;51.052;13.678;2023-05-07T00:49:42;31.60;;;15.93;;
3849;SDS011;1940;51.052;13.678;2023-05-07T00:52:11;31.63;;;16.73;;
3849;SDS011;1940;51.052;13.678;2023-05-07T00:54:40;34.87;;;17.10;;
3849;SDS011;1940;51.052;13.678;2023-05-07T00:57:06;34.43;;;17.30;;
3849;SDS011;1940;51.052;13.678;2023-05-07T00:59:32;26.17;;;15.60;;
3849;SDS011;1940;51.052;13.678;2023-05-07T01:01:58;27.13;;;15.47;;
3849;SDS011;1940;51.052;13.678;2023-05-07T01:04:25;27.63;;;14.97;;
3849;SDS011;1940;51.052;13.678;2023-05-07T01:06:51;35.30;;;17.50;;
3849;SDS011;1940;51.052;13.678;2023-05-07T01:09:18;30.00;;;14.90;;
3849;SDS011;1940;51.052;13.678;2023-05-07T01:11:45;26.43;;;15.40;;
3849;SDS011;1940;51.052;13.678;2023-05-07T01:14:12;27.70;;;15.90;;
3849;SDS011;1940;51.052;13.678;2023-05-07T01:16:37;26.20;;;14.77;;
3849;SDS011;1940;51.052;13.678;2023-05-07T01:19:03;29.10;;;14.23;;
3849;SDS011;1940;51.052;13.678;2023-05-07T01:21:29;25.33;;;13.80;;
3849;SDS011;1940;51.052;13.678;2023-05-07T01:23:58;23.80;;;13.60;;
3849;SDS011;1940;51.052;13.678;2023-05-07T01:26:23;28.27;;;14.70;;
3849;SDS011;1940;51.052;13.678;2023-05-07T01:28:49;23.40;;;13.27;;
3849;SDS011;1940;51.052;13.678;2023-05-07T01:31:15;24.93;;;13.50;;
3849;SDS011;1940;51.052;13.678;2023-05-07T01:33:42;26.83;;;14.50;;
3849;SDS011;1940;51.052;13.678;2023-05-07T01:36:10;26.80;;;15.13;;
3849;SDS011;1940;51.052;13.678;2023-05-07T01:38:37;23.93;;;13.20;;
3849;SDS011;1940;51.052;13.678;2023-05-07T01:41:05;29.80;;;15.33;;
3849;SDS011;1940;51.052;13.678;2023-05-07T01:43:31;22.30;;;13.40;;
3849;SDS011;1940;51.052;13.678;2023-05-07T01:45:57;25.77;;;13.90;;
3849;SDS011;1940;51.052;13.678;2023-05-07T01:48:24;25.17;;;14.10;;
3849;SDS011;1940;51.052;13.678;2023-05-07T01:50:50;28.70;;;14.93;;
3849;SDS011;1940;51.052;13.678;2023-05-07T01:53:16;22.90;;;13.43;;
3849;SDS011;1940;51.052;13.678;2023-05-07T01:55:42;26.97;;;14.70;;
3849;SDS011;1940;51.052;13.678;2023-05-07T01:58:07;25.07;;;13.90;;
3849;SDS011;1940;51.052;13.678;2023-05-07T02:00:33;27.63;;;14.00;;
3849;SDS011;1940;51.052;13.678;2023-05-07T02:02:59;26.10;;;14.13;;
3849;SDS011;1940;51.052;13.678;2023-05-07T02:05:24;26.37;;;14.67;;
3849;SDS011;1940;51.052;13.678;2023-05-07T02:07:50;27.93;;;14.93;;
3849;SDS011;1940;51.052;13.678;2023-05-07T02:10:15;27.90;;;15.10;;
3849;SDS011;1940;51.052;13.678;2023-05-07T02:12:41;24.60;;;14.30;;
3849;SDS011;1940;51.052;13.678;2023-05-07T02:15:07;27.30;;;13.07;;
3849;SDS011;1940;51.052;13.678;2023-05-07T02:17:35;23.13;;;12.70;;
3849;SDS011;1940;51.052;13.678;2023-05-07T02:20:04;25.47;;;14.20;;
3849;SDS011;1940;51.052;13.678;2023-05-07T02:22:32;25.10;;;13.90;;
3849;SDS011;1940;51.052;13.678;2023-05-07T02:24:57;27.10;;;14.13;;
3849;SDS011;1940;51.052;13.678;2023-05-07T02:27:22;22.93;;;13.10;;
3849;SDS011;1940;51.052;13.678;2023-05-07T02:29:48;22.70;;;12.50;;
3849;SDS011;1940;51.052;13.678;2023-05-07T02:32:13;23.37;;;13.87;;
3849;SDS011;1940;51.052;13.678;2023-05-07T02:34:39;20.80;;;11.73;;
3849;SDS011;1940;51.052;13.678;2023-05-07T02:37:04;21.37;;;12.10;;
3849;SDS011;1940;51.052;13.678;2023-05-07T02:39:30;24.43;;;13.33;;
3849;SDS011;1940;51.052;13.678;2023-05-07T02:41:55;25.00;;;14.07;;
3849;SDS011;1940;51.052;13.678;2023-05-07T02:44:21;26.03;;;13.90;;
3849;SDS011;1940;51.052;13.678;2023-05-07T02:46:46;28.30;;;13.43;;
3849;SDS011;1940;51.052;13.678;2023-05-07T02:49:12;22.87;;;12.30;;
3849;SDS011;1940;51.052;13.678;2023-05-07T02:51:37;22.77;;;13.20;;
3849;SDS011;1940;51.052;13.678;2023-05-07T02:54:03;23.73;;;12.10;;
3849;SDS011;1940;51.052;13.678;2023-05-07T02:56:28;22.03;;;12.10;;
3849;SDS011;1940;51.052;13.678;2023-05-07T02:58:54;21.37;;;11.80;;
3849;SDS011;1940;51.052;13.678;2023-05-07T03:01:20;23.20;;;11.97;;
3849;SDS011;1940;51.052;13.678;2023-05-07T03:03:45;21.20;;;11.47;;
3849;SDS011;1940;51.052;13.678;2023-05-07T03:06:11;21.20;;;11.67;;
3849;SDS011;1940;51.052;13.678;2023-05-07T03:08:36;23.03;;;12.00;;
3849;SDS011;1940;51.052;13.678;2023-05-07T03:11:02;18.67;;;10.87;;
3849;SDS011;1940;51.052;13.678;2023-05-07T03:13:27;22.23;;;11.17;;
3849;SDS011;1940;51.052;13.678;2023-05-07T03:15:53;19.33;;;11.03;;
3849;SDS011;1940;51.052;13.678;2023-05-07T03:18:18;17.63;;;10.70;;
3849;SDS011;1940;51.052;13.678;2023-05-07T03:20:44;18.70;;;9.97;;
3849;SDS011;1940;51.052;13.678;2023-05-07T03:23:11;19.57;;;10.90;;
3849;SDS011;1940;51.052;13.678;2023-05-07T03:25:36;19.70;;;9.50;;
3849;SDS011;1940;51.052;13.678;2023-05-07T03:28:02;16.67;;;9.60;;
3849;SDS011;1940;51.052;13.678;2023-05-07T03:30:27;18.77;;;10.27;;
3849;SDS011;1940;51.052;13.678;2023-05-07T03:32:53;17.37;;;10.17;;
3849;SDS011;1940;51.052;13.678;2023-05-07T03:35:18;17.70;;;10.43;;
3849;SDS011;1940;51.052;13.678;2023-05-07T03:37:44;22.53;;;10.37;;
3849;SDS011;1940;51.052;13.678;2023-05-07T03:40:09;18.10;;;10.27;;
3849;SDS011;1940;51.052;13.678;2023-05-07T03:42:37;18.10;;;10.60;;
3849;SDS011;1940;51.052;13.678;2023-05-07T03:45:02;18.83;;;9.63;;
3849;SDS011;1940;51.052;13.678;2023-05-07T03:47:28;20.37;;;10.47;;
3849;SDS011;1940;51.052;13.678;2023-05-07T03:49:53;22.73;;;11.07;;
3849;SDS011;1940;51.052;13.678;2023-05-07T03:52:19;19.23;;;11.10;;
3849;SDS011;1940;51.052;13.678;2023-05-07T03:54:48;18.50;;;9.93;;
3849;SDS011;1940;51.052;13.678;2023-05-07T03:57:14;21.60;;;11.30;;
3849;SDS011;1940;51.052;13.678;2023-05-07T03:59:40;18.40;;;9.90;;
3849;SDS011;1940;51.052;13.678;2023-05-07T04:02:05;21.70;;;10.90;;
3849;SDS011;1940;51.052;13.678;2023-05-07T04:04:31;19.83;;;10.77;;
3849;SDS011;1940;51.052;13.678;2023-05-07T04:06:57;18.80;;;10.77;;
3849;SDS011;1940;51.052;13.678;2023-05-07T04:09:24;20.90;;;10.70;;
3849;SDS011;1940;51.052;13.678;2023-05-07T04:11:50;20.00;;;10.50;;
3849;SDS011;1940;51.052;13.678;2023-05-07T04:14:15;20.27;;;11.20;;
3849;SDS011;1940;51.052;13.678;2023-05-07T04:16:41;23.00;;;10.60;;
3849;SDS011;1940;51.052;13.678;2023-05-07T04:19:06;18.77;;;10.40;;
3849;SDS011;1940;51.052;13.678;2023-05-07T04:21:32;21.83;;;11.40;;
3849;SDS011;1940;51.052;13.678;2023-05-07T04:23:57;20.73;;;10.90;;
3849;SDS011;1940;51.052;13.678;2023-05-07T04:26:23;20.07;;;10.60;;
3849;SDS011;1940;51.052;13.678;2023-05-07T04:28:49;22.93;;;11.50;;
3849;SDS011;1940;51.052;13.678;2023-05-07T04:31:15;20.33;;;11.43;;
3849;SDS011;1940;51.052;13.678;2023-05-07T04:33:41;20.93;;;11.97;;
3849;SDS011;1940;51.052;13.678;2023-05-07T04:36:06;20.47;;;11.17;;
3849;SDS011;1940;51.052;13.678;2023-05-07T04:38:32;19.67;;;10.80;;
3849;SDS011;1940;51.052;13.678;2023-05-07T04:41:02;18.33;;;10.20;;
3849;SDS011;1940;51.052;13.678;2023-05-07T04:43:28;23.10;;;11.10;;
3849;SDS011;1940;51.052;13.678;2023-05-07T04:45:54;22.03;;;10.43;;
3849;SDS011;1940;51.052;13.678;2023-05-07T04:48:19;21.00;;;10.63;;
3849;SDS011;1940;51.052;13.678;2023-05-07T04:50:51;22.60;;;11.17;;
3849;SDS011;1940;51.052;13.678;2023-05-07T04:53:17;26.60;;;10.17;;
3849;SDS011;1940;51.052;13.678;2023-05-07T04:55:43;21.20;;;11.10;;
3849;SDS011;1940;51.052;13.678;2023-05-07T04:58:09;23.77;;;11.37;;
3849;SDS011;1940;51.052;13.678;2023-05-07T05:00:35;23.30;;;12.17;;
3849;SDS011;1940;51.052;13.678;2023-05-07T05:03:00;19.90;;;9.63;;
3849;SDS011;1940;51.052;13.678;2023-05-07T05:05:26;20.00;;;10.57;;
3849;SDS011;1940;51.052;13.678;2023-05-07T05:07:52;17.90;;;10.17;;
3849;SDS011;1940;51.052;13.678;2023-05-07T05:10:17;21.47;;;10.10;;
3849;SDS011;1940;51.052;13.678;2023-05-07T05:12:43;20.67;;;11.50;;
3849;SDS011;1940;51.052;13.678;2023-05-07T05:15:10;17.03;;;9.93;;
3849;SDS011;1940;51.052;13.678;2023-05-07T05:17:37;20.97;;;11.47;;
3849;SDS011;1940;51.052;13.678;2023-05-07T05:20:02;17.23;;;9.77;;
3849;SDS011;1940;51.052;13.678;2023-05-07T05:22:28;20.10;;;10.57;;
3849;SDS011;1940;51.052;13.678;2023-05-07T05:24:56;17.03;;;9.50;;
3849;SDS011;1940;51.052;13.678;2023-05-07T05:27:21;19.70;;;9.73;;
3849;SDS011;1940;51.052;13.678;2023-05-07T05:29:46;20.13;;;10.20;;
3849;SDS011;1940;51.052;13.678;2023-05-07T05:32:12;15.20;;;9.40;;
3849;SDS011;1940;51.052;13.678;2023-05-07T05:34:37;19.70;;;10.10;;
3849;SDS011;1940;51.052;13.678;2023-05-07T05:37:03;19.00;;;10.53;;
3849;SDS011;1940;51.052;13.678;2023-05-07T05:39:29;18.37;;;9.87;;
3849;SDS011;1940;51.052;13.678;2023-05-07T05:41:54;17.20;;;10.03;;
3849;SDS011;1940;51.052;13.678;2023-05-07T05:44:19;16.13;;;9.60;;
3849;SDS011;1940;51.052;13.678;2023-05-07T05:46:45;15.63;;;9.00;;
3849;SDS011;1940;51.052;13.678;2023-05-07T05:49:10;15.33;;;9.07;;
3849;SDS011;1940;51.052;13.678;2023-05-07T05:51:36;17.47;;;9.40;;
3849;SDS011;1940;51.052;13.678;2023-05-07T05:54:01;17.00;;;9.60;;
3849;SDS011;1940;51.052;13.678;2023-05-07T05:56:27;17.10;;;9.43;;
3849;SDS011;1940;51.052;13.678;2023-05-07T05:58:52;18.67;;;10.30;;
3849;SDS011;1940;51.052;13.678;2023-05-07T06:01:18;24.13;;;9.23;;
3849;SDS011;1940;51.052;13.678;2023-05-07T06:03:44;19.40;;;10.40;;
3849;SDS011;1940;51.052;13.678;2023-05-07T06:06:09;16.80;;;9.53;;
3849;SDS011;1940;51.052;13.678;2023-05-07T06:08:35;17.20;;;9.33;;
3849;SDS011;1940;51.052;13.678;2023-05-07T06:11:01;15.97;;;9.23;;
3849;SDS011;1940;51.052;13.678;2023-05-07T06:13:27;17.63;;;9.73;;
3849;SDS011;1940;51.052;13.678;2023-05-07T06:15:52;14.70;;;8.77;;
3849;SDS011;1940;51.052;13.678;2023-05-07T06:18:18;16.70;;;9.23;;
3849;SDS011;1940;51.052;13.678;2023-05-07T06:20:43;15.00;;;8.60;;
3849;SDS011;1940;51.052;13.678;2023-05-07T06:23:08;16.23;;;7.90;;
3849;SDS011;1940;51.052;13.678;2023-05-07T06:25:34;14.20;;;8.00;;
3849;SDS011;1940;51.052;13.678;2023-05-07T06:27:59;13.73;;;8.10;;
3849;SDS011;1940;51.052;13.678;2023-05-07T06:30:25;10.23;;;6.47;;
3849;SDS011;1940;51.052;13.678;2023-05-07T06:32:51;12.83;;;7.47;;
3849;SDS011;1940;51.052;13.678;2023-05-07T06:35:17;14.30;;;7.43;;
3849;SDS011;1940;51.052;13.678;2023-05-07T06:37:42;12.63;;;7.40;;
3849;SDS011;1940;51.052;13.678;2023-05-07T06:40:08;13.93;;;7.43;;
3849;SDS011;1940;51.052;13.678;2023-05-07T06:42:35;12.97;;;7.80;;
3849;SDS011;1940;51.052;13.678;2023-05-07T06:45:01;16.97;;;9.47;;
3849;SDS011;1940;51.052;13.678;2023-05-07T06:47:27;13.73;;;7.17;;
3849;SDS011;1940;51.052;13.678;2023-05-07T06:49:53;12.93;;;7.00;;
3849;SDS011;1940;51.052;13.678;2023-05-07T06:52:18;11.17;;;7.23;;
3849;SDS011;1940;51.052;13.678;2023-05-07T06:54:44;14.80;;;7.67;;
3849;SDS011;1940;51.052;13.678;2023-05-07T06:57:09;13.27;;;7.43;;
3849;SDS011;1940;51.052;13.678;2023-05-07T06:59:35;12.60;;;7.40;;
3849;SDS011;1940;51.052;13.678;2023-05-07T07:02:00;15.27;;;7.53;;
3849;SDS011;1940;51.052;13.678;2023-05-07T07:04:26;11.53;;;7.03;;
3849;SDS011;1940;51.052;13.678;2023-05-07T07:06:52;11.47;;;7.23;;
3849;SDS011;1940;51.052;13.678;2023-05-07T07:09:18;11.40;;;6.80;;
3849;SDS011;1940;51.052;13.678;2023-05-07T07:11:43;12.30;;;7.77;;
3849;SDS011;1940;51.052;13.678;2023-05-07T07:14:09;11.87;;;6.70;;
3849;SDS011;1940;51.052;13.678;2023-05-07T07:16:34;11.00;;;6.90;;
3849;SDS011;1940;51.052;13.678;2023-05-07T07:19:00;15.03;;;8.33;;
3849;SDS011;1940;51.052;13.678;2023-05-07T07:21:25;13.30;;;8.00;;
3849;SDS011;1940;51.052;13.678;2023-05-07T07:23:51;14.90;;;8.00;;
3849;SDS011;1940;51.052;13.678;2023-05-07T07:26:17;14.50;;;8.20;;
3849;SDS011;1940;51.052;13.678;2023-05-07T07:28:43;18.53;;;8.60;;
3849;SDS011;1940;51.052;13.678;2023-05-07T07:31:09;11.43;;;7.27;;
3849;SDS011;1940;51.052;13.678;2023-05-07T07:33:35;10.03;;;6.20;;
3849;SDS011;1940;51.052;13.678;2023-05-07T07:36:01;9.90;;;6.17;;
3849;SDS011;1940;51.052;13.678;2023-05-07T07:38:26;9.80;;;6.07;;
3849;SDS011;1940;51.052;13.678;2023-05-07T07:40:51;9.40;;;6.27;;
3849;SDS011;1940;51.052;13.678;2023-05-07T07:43:17;8.10;;;5.37;;
3849;SDS011;1940;51.052;13.678;2023-05-07T07:45:42;7.67;;;5.10;;
3849;SDS011;1940;51.052;13.678;2023-05-07T07:48:08;7.90;;;4.70;;
3849;SDS011;1940;51.052;13.678;2023-05-07T07:50:34;7.40;;;4.73;;
3849;SDS011;1940;51.052;13.678;2023-05-07T07:52:59;6.17;;;4.50;;
3849;SDS011;1940;51.052;13.678;2023-05-07T07:55:25;7.30;;;4.97;;
3849;SDS011;1940;51.052;13.678;2023-05-07T07:57:52;7.33;;;5.03;;
3849;SDS011;1940;51.052;13.678;2023-05-07T08:00:17;6.73;;;4.70;;
3849;SDS011;1940;51.052;13.678;2023-05-07T08:02:43;7.03;;;4.60;;
3849;SDS011;1940;51.052;13.678;2023-05-07T08:05:08;8.03;;;4.97;;
3849;SDS011;1940;51.052;13.678;2023-05-07T08:07:34;7.30;;;4.87;;
3849;SDS011;1940;51.052;13.678;2023-05-07T08:10:00;7.20;;;4.73;;
3849;SDS011;1940;51.052;13.678;2023-05-07T08:12:25;6.83;;;4.67;;
3849;SDS011;1940;51.052;13.678;2023-05-07T08:14:51;5.90;;;4.20;;
3849;SDS011;1940;51.052;13.678;2023-05-07T08:17:16;8.73;;;5.17;;
3849;SDS011;1940;51.052;13.678;2023-05-07T08:19:42;8.07;;;5.13;;
3849;SDS011;1940;51.052;13.678;2023-05-07T08:22:08;9.17;;;4.80;;
3849;SDS011;1940;51.052;13.678;2023-05-07T08:24:34;7.47;;;4.90;;
3849;SDS011;1940;51.052;13.678;2023-05-07T08:27:00;6.53;;;4.37;;
3849;SDS011;1940;51.052;13.678;2023-05-07T08:29:25;8.23;;;5.20;;
3849;SDS011;1940;51.052;13.678;2023-05-07T08:31:51;7.93;;;5.43;;
3849;SDS011;1940;51.052;13.678;2023-05-07T08:34:16;7.83;;;4.73;;
3849;SDS011;1940;51.052;13.678;2023-05-07T08:36:41;7.53;;;5.03;;
3849;SDS011;1940;51.052;13.678;2023-05-07T08:39:07;7.13;;;4.47;;
3849;SDS011;1940;51.052;13.678;2023-05-07T08:41:32;6.40;;;4.57;;
3849;SDS011;1940;51.052;13.678;2023-05-07T08:43:59;5.57;;;4.30;;
3849;SDS011;1940;51.052;13.678;2023-05-07T08:46:29;7.27;;;5.13;;
3849;SDS011;1940;51.052;13.678;2023-05-07T08:48:56;6.33;;;4.40;;
3849;SDS011;1940;51.052;13.678;2023-05-07T08:51:22;8.30;;;5.20;;
3849;SDS011;1940;51.052;13.678;2023-05-07T08:53:48;7.90;;;5.13;;
3849;SDS011;1940;51.052;13.678;2023-05-07T08:56:15;7.27;;;4.97;;
3849;SDS011;1940;51.052;13.678;2023-05-07T08:58:44;7.10;;;4.83;;
3849;SDS011;1940;51.052;13.678;2023-05-07T09:01:12;6.83;;;5.10;;
3849;SDS011;1940;51.052;13.678;2023-05-07T09:03:39;6.77;;;4.90;;
3849;SDS011;1940;51.052;13.678;2023-05-07T09:06:06;8.17;;;5.13;;
3849;SDS011;1940;51.052;13.678;2023-05-07T09:08:32;8.93;;;5.07;;
3849;SDS011;1940;51.052;13.678;2023-05-07T09:10:58;7.83;;;5.30;;
3849;SDS011;1940;51.052;13.678;2023-05-07T09:13:24;7.63;;;5.30;;
3849;SDS011;1940;51.052;13.678;2023-05-07T09:15:50;7.70;;;5.80;;
3849;SDS011;1940;51.052;13.678;2023-05-07T09:18:15;9.80;;;5.93;;
3849;SDS011;1940;51.052;13.678;2023-05-07T09:20:41;9.20;;;6.40;;
3849;SDS011;1940;51.052;13.678;2023-05-07T09:23:07;9.77;;;6.50;;
3849;SDS011;1940;51.052;13.678;2023-05-07T09:25:34;11.70;;;6.90;;
3849;SDS011;1940;51.052;13.678;2023-05-07T09:28:01;10.03;;;6.57;;
3849;SDS011;1940;51.052;13.678;2023-05-07T09:30:28;8.50;;;5.80;;
3849;SDS011;1940;51.052;13.678;2023-05-07T09:32:55;8.70;;;6.03;;
3849;SDS011;1940;51.052;13.678;2023-05-07T09:35:21;11.33;;;6.70;;
3849;SDS011;1940;51.052;13.678;2023-05-07T09:37:50;10.83;;;6.87;;
3849;SDS011;1940;51.052;13.678;2023-05-07T09:40:25;10.77;;;6.67;;
3849;SDS011;1940;51.052;13.678;2023-05-07T09:42:52;9.10;;;6.07;;
3849;SDS011;1940;51.052;13.678;2023-05-07T09:45:22;13.00;;;7.60;;
3849;SDS011;1940;51.052;13.678;2023-05-07T09:47:49;9.70;;;6.23;;
3849;SDS011;1940;51.052;13.678;2023-05-07T09:50:19;12.20;;;8.57;;
3849;SDS011;1940;51.052;13.678;2023-05-07T09:52:51;11.03;;;6.87;;
3849;SDS011;1940;51.052;13.678;2023-05-07T09:55:17;9.67;;;6.80;;
3849;SDS011;1940;51.052;13.678;2023-05-07T09:57:43;9.00;;;6.23;;
3849;SDS011;1940;51.052;13.678;2023-05-07T10:00:10;9.53;;;6.30;;
3849;SDS011;1940;51.052;13.678;2023-05-07T10:02:36;17.30;;;6.33;;
3849;SDS011;1940;51.052;13.678;2023-05-07T10:05:11;9.17;;;6.17;;
3849;SDS011;1940;51.052;13.678;2023-05-07T10:07:37;8.60;;;6.23;;
3849;SDS011;1940;51.052;13.678;2023-05-07T10:10:03;8.97;;;6.40;;
3849;SDS011;1940;51.052;13.678;2023-05-07T10:12:29;9.87;;;5.87;;
3849;SDS011;1940;51.052;13.678;2023-05-07T10:15:02;8.00;;;6.00;;
3849;SDS011;1940;51.052;13.678;2023-05-07T10:17:29;11.60;;;7.27;;
3849;SDS011;1940;51.052;13.678;2023-05-07T10:19:55;9.83;;;7.03;;
3849;SDS011;1940;51.052;13.678;2023-05-07T10:22:21;10.97;;;7.43;;
3849;SDS011;1940;51.052;13.678;2023-05-07T10:24:47;11.77;;;7.40;;
3849;SDS011;1940;51.052;13.678;2023-05-07T10:27:17;10.73;;;6.50;;
3849;SDS011;1940;51.052;13.678;2023-05-07T10:30:07;9.40;;;6.40;;
3849;SDS011;1940;51.052;13.678;2023-05-07T10:32:42;9.77;;;6.13;;
3849;SDS011;1940;51.052;13.678;2023-05-07T10:35:14;11.70;;;7.87;;
3849;SDS011;1940;51.052;13.678;2023-05-07T10:37:44;9.37;;;6.43;;
3849;SDS011;1940;51.052;13.678;2023-05-07T10:40:10;9.53;;;6.67;;
3849;SDS011;1940;51.052;13.678;2023-05-07T10:42:37;10.10;;;6.83;;
3849;SDS011;1940;51.052;13.678;2023-05-07T10:45:12;9.30;;;6.80;;
3849;SDS011;1940;51.052;13.678;2023-05-07T10:50:46;9.27;;;6.10;;
3849;SDS011;1940;51.052;13.678;2023-05-07T10:55:43;8.70;;;6.50;;
3849;SDS011;1940;51.052;13.678;2023-05-07T10:58:26;11.00;;;7.30;;
3849;SDS011;1940;51.052;13.678;2023-05-07T11:00:59;12.60;;;7.53;;
3849;SDS011;1940;51.052;13.678;2023-05-07T11:03:26;9.87;;;6.47;;
3849;SDS011;1940;51.052;13.678;2023-05-07T11:06:11;10.47;;;6.93;;
3849;SDS011;1940;51.052;13.678;2023-05-07T11:08:54;8.60;;;6.00;;
3849;SDS011;1940;51.052;13.678;2023-05-07T11:17:06;10.87;;;6.43;;
3849;SDS011;1940;51.052;13.678;2023-05-07T11:19:47;9.77;;;5.70;;
3849;SDS011;1940;51.052;13.678;2023-05-07T11:24:55;8.40;;;5.73;;
3849;SDS011;1940;51.052;13.678;2023-05-07T11:27:25;7.20;;;5.43;;
3849;SDS011;1940;51.052;13.678;2023-05-07T11:29:51;8.43;;;6.00;;
3849;SDS011;1940;51.052;13.678;2023-05-07T11:32:29;7.73;;;5.80;;
3849;SDS011;1940;51.052;13.678;2023-05-07T11:34:59;9.53;;;5.80;;
3849;SDS011;1940;51.052;13.678;2023-05-07T11:37:26;7.33;;;5.30;;
3849;SDS011;1940;51.052;13.678;2023-05-07T11:40:04;8.60;;;5.70;;
3849;SDS011;1940;51.052;13.678;2023-05-07T11:42:35;9.00;;;6.20;;
3849;SDS011;1940;51.052;13.678;2023-05-07T11:45:05;7.70;;;5.20;;
3849;SDS011;1940;51.052;13.678;2023-05-07T11:47:32;7.20;;;5.33;;
3849;SDS011;1940;51.052;13.678;2023-05-07T11:50:02;7.07;;;5.10;;
3849;SDS011;1940;51.052;13.678;2023-05-07T11:52:30;8.33;;;5.70;;
3849;SDS011;1940;51.052;13.678;2023-05-07T11:54:55;8.30;;;5.80;;
3849;SDS011;1940;51.052;13.678;2023-05-07T11:57:25;9.97;;;6.13;;
3849;SDS011;1940;51.052;13.678;2023-05-07T11:59:55;9.40;;;6.10;;
3849;SDS011;1940;51.052;13.678;2023-05-07T12:02:27;8.07;;;6.03;;
3849;SDS011;1940;51.052;13.678;2023-05-07T12:04:53;7.73;;;5.50;;
3849;SDS011;1940;51.052;13.678;2023-05-07T12:07:19;9.70;;;6.27;;
3849;SDS011;1940;51.052;13.678;2023-05-07T12:09:46;10.83;;;6.50;;
3849;SDS011;1940;51.052;13.678;2023-05-07T12:12:12;10.07;;;6.40;;
3849;SDS011;1940;51.052;13.678;2023-05-07T12:14:41;7.53;;;5.50;;
3849;SDS011;1940;51.052;13.678;2023-05-07T12:17:08;8.40;;;6.00;;
3849;SDS011;1940;51.052;13.678;2023-05-07T12:19:35;10.83;;;6.00;;
3849;SDS011;1940;51.052;13.678;2023-05-07T12:22:04;6.83;;;5.33;;
3849;SDS011;1940;51.052;13.678;2023-05-07T12:24:43;9.67;;;5.50;;
3849;SDS011;1940;51.052;13.678;2023-05-07T12:27:10;10.33;;;5.67;;
3849;SDS011;1940;51.052;13.678;2023-05-07T12:29:35;7.80;;;5.70;;
3849;SDS011;1940;51.052;13.678;2023-05-07T12:32:03;8.30;;;6.10;;
3849;SDS011;1940;51.052;13.678;2023-05-07T12:34:31;8.27;;;6.00;;
3849;SDS011;1940;51.052;13.678;2023-05-07T12:36:56;7.90;;;5.73;;
3849;SDS011;1940;51.052;13.678;2023-05-07T12:39:22;8.70;;;5.67;;
3849;SDS011;1940;51.052;13.678;2023-05-07T12:41:54;10.30;;;6.30;;
3849;SDS011;1940;51.052;13.678;2023-05-07T12:44:24;8.00;;;5.77;;
3849;SDS011;1940;51.052;13.678;2023-05-07T12:46:53;13.13;;;5.80;;
3849;SDS011;1940;51.052;13.678;2023-05-07T12:49:19;7.23;;;5.70;;
3849;SDS011;1940;51.052;13.678;2023-05-07T12:51:46;8.40;;;6.27;;
3849;SDS011;1940;51.052;13.678;2023-05-07T12:54:12;7.33;;;5.40;;
3849;SDS011;1940;51.052;13.678;2023-05-07T12:56:39;9.10;;;6.00;;
3849;SDS011;1940;51.052;13.678;2023-05-07T12:59:05;7.33;;;5.60;;
3849;SDS011;1940;51.052;13.678;2023-05-07T13:01:31;8.90;;;5.73;;
3849;SDS011;1940;51.052;13.678;2023-05-07T13:04:03;13.57;;;5.43;;
3849;SDS011;1940;51.052;13.678;2023-05-07T13:06:29;8.70;;;5.90;;
3849;SDS011;1940;51.052;13.678;2023-05-07T13:08:55;7.87;;;5.80;;
3849;SDS011;1940;51.052;13.678;2023-05-07T13:11:21;8.20;;;5.83;;
3849;SDS011;1940;51.052;13.678;2023-05-07T13:13:47;8.67;;;6.60;;
3849;SDS011;1940;51.052;13.678;2023-05-07T13:16:13;8.53;;;6.00;;
3849;SDS011;1940;51.052;13.678;2023-05-07T13:18:39;8.90;;;5.87;;
3849;SDS011;1940;51.052;13.678;2023-05-07T13:21:06;7.47;;;5.50;;
3849;SDS011;1940;51.052;13.678;2023-05-07T13:23:31;7.83;;;5.63;;
3849;SDS011;1940;51.052;13.678;2023-05-07T13:25:57;10.10;;;5.90;;
3849;SDS011;1940;51.052;13.678;2023-05-07T13:28:23;7.77;;;5.67;;
3849;SDS011;1940;51.052;13.678;2023-05-07T13:30:49;8.33;;;6.07;;
3849;SDS011;1940;51.052;13.678;2023-05-07T13:33:16;8.20;;;5.70;;
3849;SDS011;1940;51.052;13.678;2023-05-07T13:35:42;9.70;;;5.57;;
3849;SDS011;1940;51.052;13.678;2023-05-07T13:38:08;6.93;;;5.33;;
3849;SDS011;1940;51.052;13.678;2023-05-07T13:40:33;7.93;;;5.43;;
3849;SDS011;1940;51.052;13.678;2023-05-07T13:42:59;7.57;;;5.50;;
3849;SDS011;1940;51.052;13.678;2023-05-07T13:45:27;7.23;;;5.40;;
3849;SDS011;1940;51.052;13.678;2023-05-07T13:47:54;7.07;;;4.93;;
3849;SDS011;1940;51.052;13.678;2023-05-07T13:50:21;7.03;;;5.27;;
3849;SDS011;1940;51.052;13.678;2023-05-07T13:52:46;7.33;;;5.33;;
3849;SDS011;1940;51.052;13.678;2023-05-07T13:55:21;8.80;;;5.07;;
3849;SDS011;1940;51.052;13.678;2023-05-07T13:57:53;6.40;;;4.90;;
3849;SDS011;1940;51.052;13.678;2023-05-07T14:00:24;6.23;;;4.83;;
3849;SDS011;1940;51.052;13.678;2023-05-07T14:02:50;7.20;;;4.90;;
3849;SDS011;1940;51.052;13.678;2023-05-07T14:05:15;7.10;;;5.70;;
3849;SDS011;1940;51.052;13.678;2023-05-07T14:07:41;6.87;;;5.40;;
3849;SDS011;1940;51.052;13.678;2023-05-07T14:10:06;6.67;;;4.87;;
3849;SDS011;1940;51.052;13.678;2023-05-07T14:12:32;7.30;;;5.10;;
3849;SDS011;1940;51.052;13.678;2023-05-07T14:14:58;7.03;;;5.47;;
3849;SDS011;1940;51.052;13.678;2023-05-07T14:17:24;9.20;;;4.90;;
3849;SDS011;1940;51.052;13.678;2023-05-07T14:19:52;5.87;;;4.40;;
3849;SDS011;1940;51.052;13.678;2023-05-07T14:22:19;13.17;;;4.60;;
3849;SDS011;1940;51.052;13.678;2023-05-07T14:24:46;6.33;;;5.00;;
3849;SDS011;1940;51.052;13.678;2023-05-07T14:27:12;5.77;;;4.30;;
3849;SDS011;1940;51.052;13.678;2023-05-07T14:29:37;4.90;;;3.90;;
3849;SDS011;1940;51.052;13.678;2023-05-07T14:32:03;5.60;;;3.90;;
3849;SDS011;1940;51.052;13.678;2023-05-07T14:34:29;11.13;;;3.93;;
3849;SDS011;1940;51.052;13.678;2023-05-07T14:36:54;7.50;;;4.43;;
3849;SDS011;1940;51.052;13.678;2023-05-07T14:39:21;5.83;;;4.80;;
3849;SDS011;1940;51.052;13.678;2023-05-07T14:41:47;5.30;;;4.37;;
3849;SDS011;1940;51.052;13.678;2023-05-07T14:44:12;7.27;;;4.63;;
3849;SDS011;1940;51.052;13.678;2023-05-07T14:46:38;5.43;;;4.17;;
3849;SDS011;1940;51.052;13.678;2023-05-07T14:49:03;4.80;;;3.67;;
3849;SDS011;1940;51.052;13.678;2023-05-07T14:51:29;5.23;;;3.90;;
3849;SDS011;1940;51.052;13.678;2023-05-07T14:53:55;5.30;;;4.30;;
3849;SDS011;1940;51.052;13.678;2023-05-07T14:56:21;5.00;;;4.23;;
3849;SDS011;1940;51.052;13.678;2023-05-07T14:58:47;5.47;;;4.30;;